sensor_id;sensor_type;location;lat;lon;timestamp;pressure;altitude;pressure_sealevel;temperature;humidity
28310;BME280;15571;50.974;13.936;2023-06-22T00:02:58;100378.75;;;21.59;100.00
28310;BME280;15571;50.974;13.936;2023-06-22T00:06:03;100382.41;;;21.57;100.00
28310;BME280;15571;50.974;13.936;2023-06-22T00:09:05;100381.69;;;21.53;100.00
28310;BME280;15571;50.974;13.936;2023-06-22T00:12:08;100385.44;;;21.49;100.00
28310;BME280;15571;50.974;13.936;2023-06-22T00:15:11;100374.78;;;21.49;100.00
28310;BME280;15571;50.974;13.936;2023-06-22T00:18:14;100375.88;;;21.45;100.00
28310;BME280;15571;50.974;13.936;2023-06-22T00:21:16;100376.47;;;21.33;100.00
28310;BME280;15571;50.974;13.936;2023-06-22T00:24:21;100388.19;;;21.28;100.00
28310;BME280;15571;50.974;13.936;2023-06-22T00:30:37;100402.00;;;21.18;100.00
28310;BME280;15571;50.974;13.936;2023-06-22T00:33:39;100413.38;;;21.21;100.00
28310;BME280;15571;50.974;13.936;2023-06-22T00:36:41;100414.59;;;21.14;100.00
28310;BME280;15571;50.974;13.936;2023-06-22T00:39:43;100405.69;;;21.15;100.00
28310;BME280;15571;50.974;13.936;2023-06-22T00:42:46;100412.50;;;21.02;100.00
28310;BME280;15571;50.974;13.936;2023-06-22T00:45:50;100399.13;;;21.03;100.00
28310;BME280;15571;50.974;13.936;2023-06-22T00:48:58;100403.31;;;20.90;100.00
28310;BME280;15571;50.974;13.936;2023-06-22T00:52:03;100402.72;;;20.83;100.00
28310;BME280;15571;50.974;13.936;2023-06-22T00:55:16;100397.53;;;20.80;100.00
28310;BME280;15571;50.974;13.936;2023-06-22T00:58:19;100399.97;;;20.84;100.00
28310;BME280;15571;50.974;13.936;2023-06-22T01:01:24;100407.16;;;20.82;100.00
28310;BME280;15571;50.974;13.936;2023-06-22T01:04:36;100406.16;;;20.85;100.00
28310;BME280;15571;50.974;13.936;2023-06-22T01:07:47;100401.25;;;20.76;100.00
28310;BME280;15571;50.974;13.936;2023-06-22T01:11:09;100397.09;;;20.68;100.00
28310;BME280;15571;50.974;13.936;2023-06-22T01:14:22;100393.13;;;20.58;100.00
28310;BME280;15571;50.974;13.936;2023-06-22T01:17:28;100399.25;;;20.60;100.00
28310;BME280;15571;50.974;13.936;2023-06-22T01:20:37;100398.94;;;20.47;100.00
28310;BME280;15571;50.974;13.936;2023-06-22T01:23:57;100400.59;;;20.29;100.00
28310;BME280;15571;50.974;13.936;2023-06-22T01:27:11;100403.00;;;20.35;100.00
28310;BME280;15571;50.974;13.936;2023-06-22T01:30:24;100403.94;;;20.34;100.00
28310;BME280;15571;50.974;13.936;2023-06-22T01:33:27;100399.63;;;20.32;100.00
28310;BME280;15571;50.974;13.936;2023-06-22T01:36:31;100403.97;;;20.33;100.00
28310;BME280;15571;50.974;13.936;2023-06-22T01:39:34;100410.56;;;20.24;100.00
28310;BME280;15571;50.974;13.936;2023-06-22T01:42:47;100407.91;;;20.24;100.00
28310;BME280;15571;50.974;13.936;2023-06-22T01:45:51;100393.63;;;20.27;100.00
28310;BME280;15571;50.974;13.936;2023-06-22T01:48:55;100394.63;;;20.24;100.00
28310;BME280;15571;50.974;13.936;2023-06-22T01:51:58;100402.19;;;20.13;100.00
28310;BME280;15571;50.974;13.936;2023-06-22T01:55:03;100394.34;;;20.10;100.00
28310;BME280;15571;50.974;13.936;2023-06-22T01:58:06;100399.53;;;20.13;100.00
28310;BME280;15571;50.974;13.936;2023-06-22T02:01:11;100399.84;;;20.05;100.00
28310;BME280;15571;50.974;13.936;2023-06-22T02:04:20;100395.00;;;19.94;100.00
28310;BME280;15571;50.974;13.936;2023-06-22T02:07:30;100389.75;;;19.93;100.00
28310;BME280;15571;50.974;13.936;2023-06-22T02:10:46;100400.56;;;19.88;100.00
28310;BME280;15571;50.974;13.936;2023-06-22T02:13:50;100391.53;;;19.92;100.00
28310;BME280;15571;50.974;13.936;2023-06-22T02:16:54;100385.66;;;19.84;100.00
28310;BME280;15571;50.974;13.936;2023-06-22T02:20:01;100388.59;;;19.76;100.00
28310;BME280;15571;50.974;13.936;2023-06-22T02:23:10;100394.81;;;19.77;100.00
28310;BME280;15571;50.974;13.936;2023-06-22T02:26:12;100387.06;;;19.70;100.00
28310;BME280;15571;50.974;13.936;2023-06-22T02:29:14;100391.81;;;19.62;100.00
28310;BME280;15571;50.974;13.936;2023-06-22T02:32:24;100385.34;;;19.69;100.00
28310;BME280;15571;50.974;13.936;2023-06-22T02:35:27;100399.69;;;19.65;100.00
28310;BME280;15571;50.974;13.936;2023-06-22T02:38:42;100394.38;;;19.65;100.00
28310;BME280;15571;50.974;13.936;2023-06-22T02:41:48;100403.56;;;19.56;100.00
28310;BME280;15571;50.974;13.936;2023-06-22T02:44:51;100404.31;;;19.60;100.00
28310;BME280;15571;50.974;13.936;2023-06-22T02:47:59;100398.25;;;19.56;100.00
28310;BME280;15571;50.974;13.936;2023-06-22T02:51:01;100408.88;;;19.56;100.00
28310;BME280;15571;50.974;13.936;2023-06-22T02:54:03;100417.38;;;19.42;100.00
28310;BME280;15571;50.974;13.936;2023-06-22T02:57:06;100423.56;;;19.43;100.00
28310;BME280;15571;50.974;13.936;2023-06-22T03:00:15;100410.22;;;19.44;100.00
28310;BME280;15571;50.974;13.936;2023-06-22T03:03:35;100407.84;;;19.38;100.00
28310;BME280;15571;50.974;13.936;2023-06-22T03:06:49;100403.31;;;19.40;100.00
28310;BME280;15571;50.974;13.936;2023-06-22T03:09:55;100409.50;;;19.41;100.00
28310;BME280;15571;50.974;13.936;2023-06-22T03:12:58;100410.13;;;19.48;100.00
28310;BME280;15571;50.974;13.936;2023-06-22T03:16:00;100399.50;;;19.48;100.00
28310;BME280;15571;50.974;13.936;2023-06-22T03:19:03;100398.50;;;19.50;100.00
28310;BME280;15571;50.974;13.936;2023-06-22T03:22:06;100394.75;;;19.56;100.00
28310;BME280;15571;50.974;13.936;2023-06-22T03:25:11;100388.19;;;19.42;100.00
28310;BME280;15571;50.974;13.936;2023-06-22T03:28:17;100389.06;;;19.43;100.00
28310;BME280;15571;50.974;13.936;2023-06-22T03:31:18;100387.00;;;19.50;100.00
28310;BME280;15571;50.974;13.936;2023-06-22T03:34:26;100374.44;;;19.55;100.00
28310;BME280;15571;50.974;13.936;2023-06-22T03:37:28;100369.97;;;19.55;100.00
28310;BME280;15571;50.974;13.936;2023-06-22T03:40:30;100375.34;;;19.54;100.00
28310;BME280;15571;50.974;13.936;2023-06-22T03:43:33;100374.97;;;19.63;100.00
28310;BME280;15571;50.974;13.936;2023-06-22T03:47:07;100376.16;;;19.56;100.00
28310;BME280;15571;50.974;13.936;2023-06-22T03:50:12;100378.94;;;19.53;100.00
28310;BME280;15571;50.974;13.936;2023-06-22T03:53:14;100383.19;;;19.57;100.00
28310;BME280;15571;50.974;13.936;2023-06-22T03:56:16;100374.97;;;19.63;100.00
28310;BME280;15571;50.974;13.936;2023-06-22T03:59:21;100374.44;;;19.55;100.00
28310;BME280;15571;50.974;13.936;2023-06-22T04:02:23;100380.91;;;19.48;100.00
28310;BME280;15571;50.974;13.936;2023-06-22T04:05:40;100385.97;;;19.54;100.00
28310;BME280;15571;50.974;13.936;2023-06-22T04:08:44;100380.97;;;19.68;100.00
28310;BME280;15571;50.974;13.936;2023-06-22T04:11:48;100374.84;;;19.66;100.00
28310;BME280;15571;50.974;13.936;2023-06-22T04:14:51;100388.25;;;19.63;100.00
28310;BME280;15571;50.974;13.936;2023-06-22T04:17:54;100393.56;;;19.63;100.00
28310;BME280;15571;50.974;13.936;2023-06-22T04:21:03;100406.47;;;19.72;100.00
28310;BME280;15571;50.974;13.936;2023-06-22T04:24:06;100398.19;;;19.80;100.00
28310;BME280;15571;50.974;13.936;2023-06-22T04:27:08;100405.63;;;19.94;100.00
28310;BME280;15571;50.974;13.936;2023-06-22T04:30:16;100405.53;;;19.96;100.00
28310;BME280;15571;50.974;13.936;2023-06-22T04:33:18;100398.47;;;19.96;100.00
28310;BME280;15571;50.974;13.936;2023-06-22T04:36:22;100395.72;;;19.98;100.00
28310;BME280;15571;50.974;13.936;2023-06-22T04:39:24;100390.75;;;20.11;100.00
28310;BME280;15571;50.974;13.936;2023-06-22T04:42:27;100387.97;;;20.14;100.00
28310;BME280;15571;50.974;13.936;2023-06-22T04:45:43;100404.25;;;20.27;100.00
28310;BME280;15571;50.974;13.936;2023-06-22T04:48:45;100403.00;;;20.35;100.00
28310;BME280;15571;50.974;13.936;2023-06-22T04:51:54;100410.78;;;20.40;100.00
28310;BME280;15571;50.974;13.936;2023-06-22T04:54:56;100418.41;;;20.48;100.00
28310;BME280;15571;50.974;13.936;2023-06-22T04:58:19;100422.66;;;20.73;100.00
28310;BME280;15571;50.974;13.936;2023-06-22T05:01:22;100430.03;;;20.87;100.00
28310;BME280;15571;50.974;13.936;2023-06-22T05:04:24;100434.44;;;21.07;100.00
28310;BME280;15571;50.974;13.936;2023-06-22T05:07:29;100436.78;;;21.34;100.00
28310;BME280;15571;50.974;13.936;2023-06-22T05:10:45;100443.88;;;21.52;100.00
28310;BME280;15571;50.974;13.936;2023-06-22T05:13:47;100455.06;;;21.60;100.00
28310;BME280;15571;50.974;13.936;2023-06-22T05:16:49;100462.91;;;21.64;100.00
28310;BME280;15571;50.974;13.936;2023-06-22T05:19:52;100467.75;;;21.54;100.00
28310;BME280;15571;50.974;13.936;2023-06-22T05:22:57;100484.47;;;21.57;100.00
28310;BME280;15571;50.974;13.936;2023-06-22T05:25:59;100488.94;;;21.57;100.00
28310;BME280;15571;50.974;13.936;2023-06-22T05:29:01;100486.63;;;21.87;100.00
28310;BME280;15571;50.974;13.936;2023-06-22T05:32:04;100480.00;;;21.96;100.00
28310;BME280;15571;50.974;13.936;2023-06-22T05:35:06;100478.88;;;22.00;100.00
28310;BME280;15571;50.974;13.936;2023-06-22T05:38:22;100483.84;;;22.08;100.00
28310;BME280;15571;50.974;13.936;2023-06-22T05:41:25;100487.75;;;22.01;100.00
28310;BME280;15571;50.974;13.936;2023-06-22T05:44:27;100481.38;;;22.22;100.00
28310;BME280;15571;50.974;13.936;2023-06-22T05:47:29;100461.47;;;22.47;100.00
28310;BME280;15571;50.974;13.936;2023-06-22T05:50:40;100453.53;;;22.63;100.00
28310;BME280;15571;50.974;13.936;2023-06-22T05:53:44;100458.94;;;22.79;100.00
28310;BME280;15571;50.974;13.936;2023-06-22T05:57:21;100462.94;;;23.04;100.00
28310;BME280;15571;50.974;13.936;2023-06-22T06:00:24;100446.53;;;23.12;100.00
28310;BME280;15571;50.974;13.936;2023-06-22T06:03:26;100447.00;;;23.20;100.00
28310;BME280;15571;50.974;13.936;2023-06-22T06:06:29;100445.81;;;23.42;100.00
28310;BME280;15571;50.974;13.936;2023-06-22T06:09:33;100440.78;;;23.52;100.00
28310;BME280;15571;50.974;13.936;2023-06-22T06:12:35;100436.41;;;23.67;100.00
28310;BME280;15571;50.974;13.936;2023-06-22T06:15:37;100448.53;;;23.72;100.00
28310;BME280;15571;50.974;13.936;2023-06-22T06:18:39;100439.25;;;23.80;100.00
28310;BME280;15571;50.974;13.936;2023-06-22T06:21:41;100439.41;;;23.76;100.00
28310;BME280;15571;50.974;13.936;2023-06-22T06:24:45;100434.06;;;23.76;100.00
28310;BME280;15571;50.974;13.936;2023-06-22T06:27:49;100419.72;;;24.09;100.00
28310;BME280;15571;50.974;13.936;2023-06-22T06:30:51;100405.66;;;24.36;100.00
28310;BME280;15571;50.974;13.936;2023-06-22T06:33:57;100395.16;;;24.62;100.00
28310;BME280;15571;50.974;13.936;2023-06-22T06:37:05;100384.69;;;24.88;100.00
28310;BME280;15571;50.974;13.936;2023-06-22T06:40:10;100365.66;;;24.93;100.00
28310;BME280;15571;50.974;13.936;2023-06-22T06:43:26;100333.84;;;25.15;100.00
28310;BME280;15571;50.974;13.936;2023-06-22T06:46:28;100295.53;;;25.28;100.00
28310;BME280;15571;50.974;13.936;2023-06-22T06:49:30;100306.50;;;25.65;100.00
28310;BME280;15571;50.974;13.936;2023-06-22T06:52:33;100335.16;;;25.77;100.00
28310;BME280;15571;50.974;13.936;2023-06-22T06:55:36;100338.28;;;25.84;100.00
28310;BME280;15571;50.974;13.936;2023-06-22T06:58:40;100323.16;;;25.83;100.00
28310;BME280;15571;50.974;13.936;2023-06-22T07:01:43;100313.72;;;25.90;100.00
28310;BME280;15571;50.974;13.936;2023-06-22T07:04:46;100308.69;;;25.99;100.00
28310;BME280;15571;50.974;13.936;2023-06-22T07:07:48;100314.38;;;26.07;100.00
28310;BME280;15571;50.974;13.936;2023-06-22T07:14:36;100316.47;;;26.16;100.00
28310;BME280;15571;50.974;13.936;2023-06-22T07:17:38;100312.50;;;26.22;100.00
28310;BME280;15571;50.974;13.936;2023-06-22T07:20:51;100312.50;;;26.35;100.00
28310;BME280;15571;50.974;13.936;2023-06-22T07:23:53;100323.75;;;26.40;100.00
28310;BME280;15571;50.974;13.936;2023-06-22T07:26:58;100325.59;;;26.52;100.00
28310;BME280;15571;50.974;13.936;2023-06-22T07:30:00;100320.97;;;26.54;100.00
28310;BME280;15571;50.974;13.936;2023-06-22T07:33:03;100322.44;;;26.59;100.00
28310;BME280;15571;50.974;13.936;2023-06-22T07:36:07;100320.94;;;26.67;100.00
28310;BME280;15571;50.974;13.936;2023-06-22T07:39:09;100321.06;;;26.79;100.00
28310;BME280;15571;50.974;13.936;2023-06-22T07:42:14;100324.06;;;26.87;100.00
28310;BME280;15571;50.974;13.936;2023-06-22T07:45:19;100313.06;;;27.03;100.00
28310;BME280;15571;50.974;13.936;2023-06-22T07:48:21;100304.25;;;27.01;100.00
28310;BME280;15571;50.974;13.936;2023-06-22T07:51:23;100311.44;;;27.00;100.00
28310;BME280;15571;50.974;13.936;2023-06-22T07:54:25;100308.66;;;27.02;100.00
28310;BME280;15571;50.974;13.936;2023-06-22T07:57:29;100312.38;;;27.12;100.00
28310;BME280;15571;50.974;13.936;2023-06-22T08:00:34;100317.50;;;27.15;100.00
28310;BME280;15571;50.974;13.936;2023-06-22T08:03:37;100324.66;;;27.28;100.00
28310;BME280;15571;50.974;13.936;2023-06-22T08:06:49;100318.81;;;27.47;100.00
28310;BME280;15571;50.974;13.936;2023-06-22T08:09:57;100312.59;;;27.58;100.00
28310;BME280;15571;50.974;13.936;2023-06-22T08:13:00;100308.03;;;27.71;100.00
28310;BME280;15571;50.974;13.936;2023-06-22T08:16:03;100305.34;;;27.83;100.00
28310;BME280;15571;50.974;13.936;2023-06-22T08:19:05;100298.28;;;27.82;100.00
28310;BME280;15571;50.974;13.936;2023-06-22T08:22:07;100302.56;;;27.84;100.00
28310;BME280;15571;50.974;13.936;2023-06-22T08:25:15;100299.72;;;27.86;100.00
28310;BME280;15571;50.974;13.936;2023-06-22T08:28:19;100298.78;;;27.98;100.00
28310;BME280;15571;50.974;13.936;2023-06-22T08:31:24;100296.34;;;28.06;100.00
28310;BME280;15571;50.974;13.936;2023-06-22T08:34:26;100292.72;;;28.07;100.00
28310;BME280;15571;50.974;13.936;2023-06-22T08:37:28;100290.03;;;28.07;100.00
28310;BME280;15571;50.974;13.936;2023-06-22T08:40:32;100284.41;;;28.10;100.00
28310;BME280;15571;50.974;13.936;2023-06-22T08:43:35;100279.66;;;28.25;100.00
28310;BME280;15571;50.974;13.936;2023-06-22T08:46:37;100286.41;;;28.31;100.00
28310;BME280;15571;50.974;13.936;2023-06-22T08:49:50;100291.75;;;28.20;100.00
28310;BME280;15571;50.974;13.936;2023-06-22T08:52:52;100293.22;;;28.24;100.00
28310;BME280;15571;50.974;13.936;2023-06-22T08:55:57;100298.59;;;28.13;100.00
28310;BME280;15571;50.974;13.936;2023-06-22T08:59:01;100282.22;;;28.16;100.00
28310;BME280;15571;50.974;13.936;2023-06-22T09:02:03;100279.03;;;28.22;100.00
28310;BME280;15571;50.974;13.936;2023-06-22T09:05:06;100273.78;;;28.20;100.00
28310;BME280;15571;50.974;13.936;2023-06-22T09:08:08;100271.69;;;28.24;100.00
28310;BME280;15571;50.974;13.936;2023-06-22T09:11:11;100271.44;;;28.27;100.00
28310;BME280;15571;50.974;13.936;2023-06-22T09:14:14;100269.13;;;28.34;100.00
28310;BME280;15571;50.974;13.936;2023-06-22T09:17:17;100262.88;;;28.22;100.00
28310;BME280;15571;50.974;13.936;2023-06-22T09:20:19;100258.97;;;28.37;100.00
28310;BME280;15571;50.974;13.936;2023-06-22T09:23:28;100256.75;;;28.54;100.00
28310;BME280;15571;50.974;13.936;2023-06-22T09:26:30;100252.47;;;28.40;100.00
28310;BME280;15571;50.974;13.936;2023-06-22T09:29:34;100255.53;;;28.47;100.00
28310;BME280;15571;50.974;13.936;2023-06-22T09:32:42;100259.94;;;28.59;100.00
28310;BME280;15571;50.974;13.936;2023-06-22T09:35:44;100244.75;;;28.58;100.00
28310;BME280;15571;50.974;13.936;2023-06-22T09:38:47;100246.84;;;28.43;100.00
28310;BME280;15571;50.974;13.936;2023-06-22T09:41:59;100247.69;;;28.55;100.00
28310;BME280;15571;50.974;13.936;2023-06-22T09:45:02;100244.66;;;28.71;100.00
28310;BME280;15571;50.974;13.936;2023-06-22T09:48:06;100252.56;;;28.84;100.00
28310;BME280;15571;50.974;13.936;2023-06-22T09:51:11;100244.47;;;28.95;100.00
28310;BME280;15571;50.974;13.936;2023-06-22T09:54:13;100242.50;;;28.97;100.00
28310;BME280;15571;50.974;13.936;2023-06-22T09:57:15;100231.94;;;29.06;100.00
28310;BME280;15571;50.974;13.936;2023-06-22T10:00:19;100232.50;;;29.20;99.83
28310;BME280;15571;50.974;13.936;2023-06-22T10:03:22;100226.69;;;29.37;100.00
28310;BME280;15571;50.974;13.936;2023-06-22T10:06:33;100234.84;;;29.46;100.00
28310;BME280;15571;50.974;13.936;2023-06-22T10:09:36;100227.34;;;29.50;95.84
28310;BME280;15571;50.974;13.936;2023-06-22T10:12:41;100229.97;;;29.61;98.39
28310;BME280;15571;50.974;13.936;2023-06-22T10:15:49;100229.97;;;29.61;99.94
28310;BME280;15571;50.974;13.936;2023-06-22T10:18:52;100217.00;;;29.76;97.77
28310;BME280;15571;50.974;13.936;2023-06-22T10:21:55;100224.69;;;29.81;95.65
28310;BME280;15571;50.974;13.936;2023-06-22T10:25:00;100214.59;;;29.94;92.46
28310;BME280;15571;50.974;13.936;2023-06-22T10:28:03;100209.25;;;29.83;95.59
28310;BME280;15571;50.974;13.936;2023-06-22T10:31:09;100206.53;;;29.83;97.46
28310;BME280;15571;50.974;13.936;2023-06-22T10:34:20;100212.31;;;30.00;95.61
28310;BME280;15571;50.974;13.936;2023-06-22T10:37:23;100200.72;;;30.09;94.77
28310;BME280;15571;50.974;13.936;2023-06-22T10:40:25;100193.97;;;30.24;92.14
28310;BME280;15571;50.974;13.936;2023-06-22T10:43:27;100200.25;;;30.44;90.84
28310;BME280;15571;50.974;13.936;2023-06-22T10:46:31;100192.22;;;30.54;87.06
28310;BME280;15571;50.974;13.936;2023-06-22T10:49:53;100179.97;;;30.50;88.37
28310;BME280;15571;50.974;13.936;2023-06-22T10:52:56;100181.25;;;30.46;89.69
28310;BME280;15571;50.974;13.936;2023-06-22T10:55:58;100188.63;;;30.44;87.21
28310;BME280;15571;50.974;13.936;2023-06-22T10:59:00;100183.81;;;30.07;92.82
28310;BME280;15571;50.974;13.936;2023-06-22T11:02:05;100182.22;;;29.94;92.20
28310;BME280;15571;50.974;13.936;2023-06-22T11:05:13;100176.66;;;29.96;94.50
28310;BME280;15571;50.974;13.936;2023-06-22T11:08:15;100184.00;;;30.15;89.19
28310;BME280;15571;50.974;13.936;2023-06-22T11:11:17;100171.66;;;30.22;89.45
28310;BME280;15571;50.974;13.936;2023-06-22T11:14:25;100173.28;;;30.04;93.86
28310;BME280;15571;50.974;13.936;2023-06-22T11:17:29;100179.41;;;30.06;94.04
28310;BME280;15571;50.974;13.936;2023-06-22T11:20:31;100181.97;;;30.07;92.89
28310;BME280;15571;50.974;13.936;2023-06-22T11:23:35;100177.06;;;30.22;90.26
28310;BME280;15571;50.974;13.936;2023-06-22T11:26:51;100168.44;;;30.38;88.12
28310;BME280;15571;50.974;13.936;2023-06-22T11:29:53;100169.69;;;30.34;89.82
28310;BME280;15571;50.974;13.936;2023-06-22T11:33:03;100170.81;;;30.32;90.79
28310;BME280;15571;50.974;13.936;2023-06-22T11:36:05;100162.72;;;30.32;92.92
28310;BME280;15571;50.974;13.936;2023-06-22T11:39:08;100156.75;;;30.38;90.44
28310;BME280;15571;50.974;13.936;2023-06-22T11:42:14;100145.38;;;30.34;89.25
28310;BME280;15571;50.974;13.936;2023-06-22T11:45:16;100146.81;;;30.48;88.53
28310;BME280;15571;50.974;13.936;2023-06-22T11:48:21;100129.25;;;30.64;86.63
28310;BME280;15571;50.974;13.936;2023-06-22T11:51:23;100140.06;;;30.64;89.55
28310;BME280;15571;50.974;13.936;2023-06-22T11:54:25;100136.06;;;30.68;89.69
28310;BME280;15571;50.974;13.936;2023-06-22T11:57:34;100119.31;;;30.64;88.38
28310;BME280;15571;50.974;13.936;2023-06-22T12:00:37;100135.22;;;30.77;84.22
28310;BME280;15571;50.974;13.936;2023-06-22T12:03:54;100115.75;;;30.64;86.91
28310;BME280;15571;50.974;13.936;2023-06-22T12:06:56;100122.16;;;30.63;84.97
28310;BME280;15571;50.974;13.936;2023-06-22T12:09:59;100110.50;;;30.72;88.30
28310;BME280;15571;50.974;13.936;2023-06-22T12:13:02;100115.31;;;30.58;87.69
28310;BME280;15571;50.974;13.936;2023-06-22T12:16:04;100102.97;;;30.66;88.43
28310;BME280;15571;50.974;13.936;2023-06-22T12:19:08;100095.00;;;30.64;87.96
28310;BME280;15571;50.974;13.936;2023-06-22T12:22:28;100103.53;;;30.59;84.74
28310;BME280;15571;50.974;13.936;2023-06-22T12:25:32;100086.72;;;30.46;89.70
28310;BME280;15571;50.974;13.936;2023-06-22T12:28:34;100083.31;;;30.73;82.93
28310;BME280;15571;50.974;13.936;2023-06-22T12:31:43;100083.75;;;30.98;82.44
28310;BME280;15571;50.974;13.936;2023-06-22T12:34:46;100084.03;;;31.05;84.75
28310;BME280;15571;50.974;13.936;2023-06-22T12:37:49;100071.19;;;31.07;84.22
28310;BME280;15571;50.974;13.936;2023-06-22T12:40:57;100073.63;;;31.10;83.37
28310;BME280;15571;50.974;13.936;2023-06-22T12:43:59;100063.56;;;31.12;81.17
28310;BME280;15571;50.974;13.936;2023-06-22T12:47:01;100067.66;;;31.07;82.45
28310;BME280;15571;50.974;13.936;2023-06-22T12:50:11;100059.78;;;31.33;78.66
28310;BME280;15571;50.974;13.936;2023-06-22T12:53:13;100064.38;;;31.23;80.13
28310;BME280;15571;50.974;13.936;2023-06-22T12:56:16;100061.25;;;31.17;82.63
28310;BME280;15571;50.974;13.936;2023-06-22T12:59:18;100059.53;;;31.16;81.12
28310;BME280;15571;50.974;13.936;2023-06-22T13:02:20;100066.66;;;31.08;83.19
28310;BME280;15571;50.974;13.936;2023-06-22T13:05:23;100062.09;;;31.08;81.05
28310;BME280;15571;50.974;13.936;2023-06-22T13:08:37;100051.31;;;30.98;80.54
28310;BME280;15571;50.974;13.936;2023-06-22T13:11:40;100045.75;;;31.00;78.44
28310;BME280;15571;50.974;13.936;2023-06-22T13:14:42;100040.47;;;31.08;81.49
28310;BME280;15571;50.974;13.936;2023-06-22T13:17:46;100049.81;;;31.33;79.78
28310;BME280;15571;50.974;13.936;2023-06-22T13:20:51;100040.78;;;31.15;80.81
28310;BME280;15571;50.974;13.936;2023-06-22T13:23:55;100044.97;;;31.37;79.02
28310;BME280;15571;50.974;13.936;2023-06-22T13:26:57;100038.97;;;31.43;77.94
28310;BME280;15571;50.974;13.936;2023-06-22T13:29:59;100044.94;;;31.47;77.99
28310;BME280;15571;50.974;13.936;2023-06-22T13:33:05;100030.06;;;31.23;77.41
28310;BME280;15571;50.974;13.936;2023-06-22T13:36:08;100031.41;;;31.47;76.42
28310;BME280;15571;50.974;13.936;2023-06-22T13:39:11;100028.25;;;31.51;77.44
28310;BME280;15571;50.974;13.936;2023-06-22T13:42:13;100027.75;;;31.66;76.48
28310;BME280;15571;50.974;13.936;2023-06-22T13:45:15;100019.06;;;31.72;74.28
28310;BME280;15571;50.974;13.936;2023-06-22T13:48:19;100007.00;;;31.57;75.59
28310;BME280;15571;50.974;13.936;2023-06-22T13:51:23;99995.56;;;31.73;75.05
28310;BME280;15571;50.974;13.936;2023-06-22T13:54:25;99980.41;;;31.80;74.60
28310;BME280;15571;50.974;13.936;2023-06-22T13:57:33;99981.53;;;31.87;74.89
28310;BME280;15571;50.974;13.936;2023-06-22T14:00:42;99983.63;;;32.11;73.90
28310;BME280;15571;50.974;13.936;2023-06-22T14:03:44;99975.25;;;32.05;73.71
28310;BME280;15571;50.974;13.936;2023-06-22T14:06:49;99971.16;;;32.19;74.41
28310;BME280;15571;50.974;13.936;2023-06-22T14:09:54;99983.28;;;32.14;71.58
28310;BME280;15571;50.974;13.936;2023-06-22T14:12:56;99979.78;;;32.32;72.41
28310;BME280;15571;50.974;13.936;2023-06-22T14:16:00;99973.81;;;32.28;71.04
28310;BME280;15571;50.974;13.936;2023-06-22T14:19:05;99971.03;;;32.38;70.14
28310;BME280;15571;50.974;13.936;2023-06-22T14:22:09;99962.97;;;32.28;71.01
28310;BME280;15571;50.974;13.936;2023-06-22T14:25:12;99969.56;;;32.26;69.14
28310;BME280;15571;50.974;13.936;2023-06-22T14:28:14;99945.25;;;32.34;70.63
28310;BME280;15571;50.974;13.936;2023-06-22T14:31:20;99953.22;;;32.18;71.69
28310;BME280;15571;50.974;13.936;2023-06-22T14:34:23;99940.38;;;32.20;71.17
28310;BME280;15571;50.974;13.936;2023-06-22T14:37:26;99951.44;;;32.08;72.51
28310;BME280;15571;50.974;13.936;2023-06-22T14:40:28;99945.25;;;32.34;69.95
28310;BME280;15571;50.974;13.936;2023-06-22T14:43:31;99940.06;;;32.23;73.65
28310;BME280;15571;50.974;13.936;2023-06-22T14:46:34;99933.72;;;32.14;74.80
28310;BME280;15571;50.974;13.936;2023-06-22T14:49:36;99935.19;;;32.08;75.15
28310;BME280;15571;50.974;13.936;2023-06-22T14:52:39;99932.94;;;32.40;74.51
28310;BME280;15571;50.974;13.936;2023-06-22T14:55:45;99910.28;;;32.23;74.29
28310;BME280;15571;50.974;13.936;2023-06-22T14:58:47;99908.59;;;32.22;77.36
28310;BME280;15571;50.974;13.936;2023-06-22T15:01:49;99911.31;;;32.04;73.50
28310;BME280;15571;50.974;13.936;2023-06-22T15:04:58;99907.88;;;32.20;69.53
28310;BME280;15571;50.974;13.936;2023-06-22T15:08:01;99903.00;;;32.05;71.48
28310;BME280;15571;50.974;13.936;2023-06-22T15:11:04;99895.91;;;32.04;71.09
28310;BME280;15571;50.974;13.936;2023-06-22T15:14:06;99892.91;;;32.25;70.60
28310;BME280;15571;50.974;13.936;2023-06-22T15:17:08;99891.03;;;32.08;74.76
28310;BME280;15571;50.974;13.936;2023-06-22T15:20:11;99887.94;;;31.85;77.88
28310;BME280;15571;50.974;13.936;2023-06-22T15:23:14;99894.75;;;31.71;81.37
28310;BME280;15571;50.974;13.936;2023-06-22T15:26:17;99891.47;;;31.67;84.40
28310;BME280;15571;50.974;13.936;2023-06-22T15:29:25;99886.63;;;31.71;85.86
28310;BME280;15571;50.974;13.936;2023-06-22T15:32:27;99867.31;;;31.84;85.74
28310;BME280;15571;50.974;13.936;2023-06-22T15:35:30;99869.63;;;31.78;82.06
28310;BME280;15571;50.974;13.936;2023-06-22T15:38:33;99866.38;;;31.75;85.20
28310;BME280;15571;50.974;13.936;2023-06-22T15:41:39;99853.00;;;31.91;85.38
28310;BME280;15571;50.974;13.936;2023-06-22T15:44:45;99848.41;;;32.10;86.35
28310;BME280;15571;50.974;13.936;2023-06-22T15:47:53;99843.47;;;32.05;86.75
28310;BME280;15571;50.974;13.936;2023-06-22T15:50:56;99846.28;;;31.95;87.35
28310;BME280;15571;50.974;13.936;2023-06-22T15:54:03;99840.75;;;31.79;85.34
28310;BME280;15571;50.974;13.936;2023-06-22T15:57:07;99832.44;;;31.80;88.04